<?xml version="1.0" encoding="UTF-8" standalone="no" ?>
<gpx xmlns="http://www.topografix.com/GPX/1/1" xmlns:xsi="http://www.w3.org/2001/XMLSchema-instance" xsi:schemaLocation="http://www.topografix.com/GPX/1/1 http://www.topografix.com/GPX/1/1/gpx.xsd" version="1.1" creator="VisuGPX - https://www.visugpx.com">
  <metadata>
    <name>Raquettes vers le Roc des Tours</name>
    <desc><![CDATA[
]]></desc>
  </metadata>
  <trk>
    <name><![CDATA[JR (3699736)]]></name>
    <desc><![CDATA[JR (3699736)]]></desc>
    <trkseg>
      <trkpt lat="45.97598" lon="6.45462">
        <ele>1372</ele>
        <time>2020-12-13T11:51:28Z</time>
      </trkpt>
      <trkpt lat="45.9759" lon="6.45452">
        <ele>1388</ele>
        <time>2020-12-13T11:52:33Z</time>
      </trkpt>
      <trkpt lat="45.97602" lon="6.45458">
        <ele>1374</ele>
        <time>2020-12-13T11:53:05Z</time>
      </trkpt>
      <trkpt lat="45.97598" lon="6.45457">
        <ele>1372</ele>
        <time>2020-12-13T11:53:35Z</time>
      </trkpt>
      <trkpt lat="45.97592" lon="6.45453">
        <ele>1382</ele>
        <time>2020-12-13T11:56:36Z</time>
      </trkpt>
      <trkpt lat="45.97599" lon="6.45457">
        <ele>1376</ele>
        <time>2020-12-13T11:57:08Z</time>
      </trkpt>
      <trkpt lat="45.97599" lon="6.45446">
        <ele>1377</ele>
        <time>2020-12-13T11:57:42Z</time>
      </trkpt>
      <trkpt lat="45.97594" lon="6.4542">
        <ele>1378</ele>
        <time>2020-12-13T11:58:32Z</time>
      </trkpt>
      <trkpt lat="45.97586" lon="6.45397">
        <ele>1383</ele>
        <time>2020-12-13T11:59:05Z</time>
      </trkpt>
      <trkpt lat="45.97585" lon="6.45386">
        <ele>1383</ele>
        <time>2020-12-13T11:59:35Z</time>
      </trkpt>
      <trkpt lat="45.97585" lon="6.45356">
        <ele>1389</ele>
        <time>2020-12-13T12:00:05Z</time>
      </trkpt>
      <trkpt lat="45.97592" lon="6.45333">
        <ele>1394</ele>
        <time>2020-12-13T12:00:36Z</time>
      </trkpt>
      <trkpt lat="45.97595" lon="6.45318">
        <ele>1393</ele>
        <time>2020-12-13T12:01:06Z</time>
      </trkpt>
      <trkpt lat="45.97594" lon="6.45312">
        <ele>1400</ele>
        <time>2020-12-13T12:01:36Z</time>
      </trkpt>
      <trkpt lat="45.97594" lon="6.4531">
        <ele>1402</ele>
        <time>2020-12-13T12:02:07Z</time>
      </trkpt>
      <trkpt lat="45.97586" lon="6.45285">
        <ele>1405</ele>
        <time>2020-12-13T12:02:37Z</time>
      </trkpt>
      <trkpt lat="45.97585" lon="6.45274">
        <ele>1403</ele>
        <time>2020-12-13T12:03:07Z</time>
      </trkpt>
      <trkpt lat="45.97575" lon="6.45256">
        <ele>1406</ele>
        <time>2020-12-13T12:03:37Z</time>
      </trkpt>
      <trkpt lat="45.97568" lon="6.45242">
        <ele>1409</ele>
        <time>2020-12-13T12:04:07Z</time>
      </trkpt>
      <trkpt lat="45.97557" lon="6.45214">
        <ele>1410</ele>
        <time>2020-12-13T12:04:37Z</time>
      </trkpt>
      <trkpt lat="45.97555" lon="6.45204">
        <ele>1411</ele>
        <time>2020-12-13T12:05:07Z</time>
      </trkpt>
      <trkpt lat="45.97552" lon="6.45196">
        <ele>1411</ele>
        <time>2020-12-13T12:06:07Z</time>
      </trkpt>
      <trkpt lat="45.97548" lon="6.45177">
        <ele>1415</ele>
        <time>2020-12-13T12:06:37Z</time>
      </trkpt>
      <trkpt lat="45.97542" lon="6.45158">
        <ele>1420</ele>
        <time>2020-12-13T12:07:07Z</time>
      </trkpt>
      <trkpt lat="45.97553" lon="6.45152">
        <ele>1425</ele>
        <time>2020-12-13T12:07:37Z</time>
      </trkpt>
      <trkpt lat="45.9757" lon="6.45158">
        <ele>1428</ele>
        <time>2020-12-13T12:08:07Z</time>
      </trkpt>
      <trkpt lat="45.97588" lon="6.45162">
        <ele>1430</ele>
        <time>2020-12-13T12:08:37Z</time>
      </trkpt>
      <trkpt lat="45.97606" lon="6.45167">
        <ele>1438</ele>
        <time>2020-12-13T12:09:07Z</time>
      </trkpt>
      <trkpt lat="45.97619" lon="6.45168">
        <ele>1438</ele>
        <time>2020-12-13T12:09:37Z</time>
      </trkpt>
      <trkpt lat="45.97619" lon="6.45164">
        <ele>1438</ele>
        <time>2020-12-13T12:10:07Z</time>
      </trkpt>
      <trkpt lat="45.97611" lon="6.4514">
        <ele>1442</ele>
        <time>2020-12-13T12:10:37Z</time>
      </trkpt>
      <trkpt lat="45.97609" lon="6.4513">
        <ele>1444</ele>
        <time>2020-12-13T12:11:07Z</time>
      </trkpt>
      <trkpt lat="45.97609" lon="6.45122">
        <ele>1445</ele>
        <time>2020-12-13T12:11:37Z</time>
      </trkpt>
      <trkpt lat="45.97607" lon="6.45111">
        <ele>1448</ele>
        <time>2020-12-13T12:12:07Z</time>
      </trkpt>
      <trkpt lat="45.97607" lon="6.45102">
        <ele>1448</ele>
        <time>2020-12-13T12:12:37Z</time>
      </trkpt>
      <trkpt lat="45.97608" lon="6.45067">
        <ele>1454</ele>
        <time>2020-12-13T12:13:07Z</time>
      </trkpt>
      <trkpt lat="45.97627" lon="6.45062">
        <ele>1459</ele>
        <time>2020-12-13T12:13:37Z</time>
      </trkpt>
      <trkpt lat="45.97644" lon="6.45056">
        <ele>1463</ele>
        <time>2020-12-13T12:14:07Z</time>
      </trkpt>
      <trkpt lat="45.97648" lon="6.45055">
        <ele>1467</ele>
        <time>2020-12-13T12:14:37Z</time>
      </trkpt>
      <trkpt lat="45.97671" lon="6.45046">
        <ele>1470</ele>
        <time>2020-12-13T12:15:07Z</time>
      </trkpt>
      <trkpt lat="45.97689" lon="6.45037">
        <ele>1472</ele>
        <time>2020-12-13T12:15:37Z</time>
      </trkpt>
      <trkpt lat="45.97699" lon="6.45027">
        <ele>1478</ele>
        <time>2020-12-13T12:16:07Z</time>
      </trkpt>
      <trkpt lat="45.97711" lon="6.45005">
        <ele>1475</ele>
        <time>2020-12-13T12:16:37Z</time>
      </trkpt>
      <trkpt lat="45.97726" lon="6.44984">
        <ele>1479</ele>
        <time>2020-12-13T12:17:07Z</time>
      </trkpt>
      <trkpt lat="45.97739" lon="6.44956">
        <ele>1481</ele>
        <time>2020-12-13T12:17:37Z</time>
      </trkpt>
      <trkpt lat="45.97741" lon="6.44942">
        <ele>1482</ele>
        <time>2020-12-13T12:18:07Z</time>
      </trkpt>
      <trkpt lat="45.97739" lon="6.44942">
        <ele>1483</ele>
        <time>2020-12-13T12:19:05Z</time>
      </trkpt>
      <trkpt lat="45.9772" lon="6.44856">
        <ele>1481</ele>
        <time>2020-12-13T12:20:15Z</time>
      </trkpt>
      <trkpt lat="45.97695" lon="6.44853">
        <ele>1483</ele>
        <time>2020-12-13T12:20:45Z</time>
      </trkpt>
      <trkpt lat="45.97674" lon="6.44853">
        <ele>1480</ele>
        <time>2020-12-13T12:21:15Z</time>
      </trkpt>
      <trkpt lat="45.97672" lon="6.44856">
        <ele>1484</ele>
        <time>2020-12-13T12:21:46Z</time>
      </trkpt>
      <trkpt lat="45.97673" lon="6.44854">
        <ele>1481</ele>
        <time>2020-12-13T12:22:16Z</time>
      </trkpt>
      <trkpt lat="45.97672" lon="6.44854">
        <ele>1484</ele>
        <time>2020-12-13T12:22:46Z</time>
      </trkpt>
      <trkpt lat="45.97671" lon="6.44859">
        <ele>1488</ele>
        <time>2020-12-13T12:23:45Z</time>
      </trkpt>
      <trkpt lat="45.97654" lon="6.44859">
        <ele>1484</ele>
        <time>2020-12-13T12:24:15Z</time>
      </trkpt>
      <trkpt lat="45.97647" lon="6.44829">
        <ele>1485</ele>
        <time>2020-12-13T12:24:45Z</time>
      </trkpt>
      <trkpt lat="45.97652" lon="6.44793">
        <ele>1492</ele>
        <time>2020-12-13T12:25:15Z</time>
      </trkpt>
      <trkpt lat="45.97654" lon="6.4477">
        <ele>1495</ele>
        <time>2020-12-13T12:25:45Z</time>
      </trkpt>
      <trkpt lat="45.97655" lon="6.44766">
        <ele>1494</ele>
        <time>2020-12-13T12:26:15Z</time>
      </trkpt>
      <trkpt lat="45.97656" lon="6.44764">
        <ele>1495</ele>
        <time>2020-12-13T12:26:47Z</time>
      </trkpt>
      <trkpt lat="45.97653" lon="6.44763">
        <ele>1498</ele>
        <time>2020-12-13T12:27:17Z</time>
      </trkpt>
      <trkpt lat="45.97657" lon="6.44763">
        <ele>1495</ele>
        <time>2020-12-13T12:27:47Z</time>
      </trkpt>
      <trkpt lat="45.97656" lon="6.44735">
        <ele>1501</ele>
        <time>2020-12-13T12:28:17Z</time>
      </trkpt>
      <trkpt lat="45.97656" lon="6.44717">
        <ele>1502</ele>
        <time>2020-12-13T12:28:47Z</time>
      </trkpt>
      <trkpt lat="45.97658" lon="6.447">
        <ele>1505</ele>
        <time>2020-12-13T12:29:17Z</time>
      </trkpt>
      <trkpt lat="45.97662" lon="6.44671">
        <ele>1510</ele>
        <time>2020-12-13T12:29:47Z</time>
      </trkpt>
      <trkpt lat="45.97669" lon="6.44647">
        <ele>1515</ele>
        <time>2020-12-13T12:30:17Z</time>
      </trkpt>
      <trkpt lat="45.97674" lon="6.44631">
        <ele>1524</ele>
        <time>2020-12-13T12:30:47Z</time>
      </trkpt>
      <trkpt lat="45.97675" lon="6.44628">
        <ele>1514</ele>
        <time>2020-12-13T12:32:14Z</time>
      </trkpt>
      <trkpt lat="45.97677" lon="6.44604">
        <ele>1519</ele>
        <time>2020-12-13T12:32:44Z</time>
      </trkpt>
      <trkpt lat="45.97676" lon="6.44602">
        <ele>1513</ele>
        <time>2020-12-13T12:33:16Z</time>
      </trkpt>
      <trkpt lat="45.97683" lon="6.44585">
        <ele>1519</ele>
        <time>2020-12-13T12:33:46Z</time>
      </trkpt>
      <trkpt lat="45.97689" lon="6.44557">
        <ele>1523</ele>
        <time>2020-12-13T12:34:16Z</time>
      </trkpt>
      <trkpt lat="45.97698" lon="6.44534">
        <ele>1544</ele>
        <time>2020-12-13T12:34:49Z</time>
      </trkpt>
      <trkpt lat="45.97696" lon="6.44512">
        <ele>1521</ele>
        <time>2020-12-13T12:35:19Z</time>
      </trkpt>
      <trkpt lat="45.97717" lon="6.44494">
        <ele>1541</ele>
        <time>2020-12-13T12:35:49Z</time>
      </trkpt>
      <trkpt lat="45.97732" lon="6.44485">
        <ele>1540</ele>
        <time>2020-12-13T12:36:19Z</time>
      </trkpt>
      <trkpt lat="45.97734" lon="6.4449">
        <ele>1559</ele>
        <time>2020-12-13T12:36:49Z</time>
      </trkpt>
      <trkpt lat="45.97724" lon="6.44471">
        <ele>1503</ele>
        <time>2020-12-13T12:38:16Z</time>
      </trkpt>
      <trkpt lat="45.97742" lon="6.4448">
        <ele>1550</ele>
        <time>2020-12-13T12:38:46Z</time>
      </trkpt>
      <trkpt lat="45.97757" lon="6.44463">
        <ele>1537</ele>
        <time>2020-12-13T12:39:17Z</time>
      </trkpt>
      <trkpt lat="45.97766" lon="6.44453">
        <ele>1543</ele>
        <time>2020-12-13T12:39:52Z</time>
      </trkpt>
      <trkpt lat="45.97812" lon="6.44437">
        <ele>1557</ele>
        <time>2020-12-13T12:40:43Z</time>
      </trkpt>
      <trkpt lat="45.97832" lon="6.44433">
        <ele>1542</ele>
        <time>2020-12-13T12:41:13Z</time>
      </trkpt>
      <trkpt lat="45.97844" lon="6.44436">
        <ele>1548</ele>
        <time>2020-12-13T12:41:43Z</time>
      </trkpt>
      <trkpt lat="45.9784" lon="6.44431">
        <ele>1548</ele>
        <time>2020-12-13T12:42:18Z</time>
      </trkpt>
      <trkpt lat="45.97858" lon="6.44432">
        <ele>1557</ele>
        <time>2020-12-13T12:42:48Z</time>
      </trkpt>
      <trkpt lat="45.97883" lon="6.44439">
        <ele>1557</ele>
        <time>2020-12-13T12:43:18Z</time>
      </trkpt>
      <trkpt lat="45.97905" lon="6.44458">
        <ele>1559</ele>
        <time>2020-12-13T12:43:48Z</time>
      </trkpt>
      <trkpt lat="45.97919" lon="6.44468">
        <ele>1560</ele>
        <time>2020-12-13T12:44:19Z</time>
      </trkpt>
      <trkpt lat="45.97951" lon="6.44481">
        <ele>1544</ele>
        <time>2020-12-13T12:45:12Z</time>
      </trkpt>
      <trkpt lat="45.97964" lon="6.44485">
        <ele>1558</ele>
        <time>2020-12-13T12:45:44Z</time>
      </trkpt>
      <trkpt lat="45.97964" lon="6.44488">
        <ele>1560</ele>
        <time>2020-12-13T12:46:14Z</time>
      </trkpt>
      <trkpt lat="45.97984" lon="6.44491">
        <ele>1550</ele>
        <time>2020-12-13T12:46:44Z</time>
      </trkpt>
      <trkpt lat="45.9801" lon="6.44495">
        <ele>1563</ele>
        <time>2020-12-13T12:47:14Z</time>
      </trkpt>
      <trkpt lat="45.98029" lon="6.44497">
        <ele>1585</ele>
        <time>2020-12-13T12:47:45Z</time>
      </trkpt>
      <trkpt lat="45.98026" lon="6.44485">
        <ele>1554</ele>
        <time>2020-12-13T12:48:15Z</time>
      </trkpt>
      <trkpt lat="45.98029" lon="6.44461">
        <ele>1568</ele>
        <time>2020-12-13T12:49:12Z</time>
      </trkpt>
      <trkpt lat="45.98034" lon="6.44454">
        <ele>1618</ele>
        <time>2020-12-13T12:49:42Z</time>
      </trkpt>
      <trkpt lat="45.98037" lon="6.44428">
        <ele>1574</ele>
        <time>2020-12-13T12:50:12Z</time>
      </trkpt>
      <trkpt lat="45.98039" lon="6.44434">
        <ele>1599</ele>
        <time>2020-12-13T12:50:43Z</time>
      </trkpt>
      <trkpt lat="45.98032" lon="6.44417">
        <ele>1586</ele>
        <time>2020-12-13T12:51:13Z</time>
      </trkpt>
      <trkpt lat="45.98031" lon="6.44401">
        <ele>1614</ele>
        <time>2020-12-13T12:51:43Z</time>
      </trkpt>
      <trkpt lat="45.98031" lon="6.44377">
        <ele>1579</ele>
        <time>2020-12-13T12:52:13Z</time>
      </trkpt>
      <trkpt lat="45.98018" lon="6.44379">
        <ele>1616</ele>
        <time>2020-12-13T12:52:43Z</time>
      </trkpt>
      <trkpt lat="45.98008" lon="6.44373">
        <ele>1611</ele>
        <time>2020-12-13T12:53:13Z</time>
      </trkpt>
      <trkpt lat="45.98012" lon="6.44372">
        <ele>1648</ele>
        <time>2020-12-13T12:53:47Z</time>
      </trkpt>
      <trkpt lat="45.98013" lon="6.44368">
        <ele>1626</ele>
        <time>2020-12-13T12:54:43Z</time>
      </trkpt>
      <trkpt lat="45.98016" lon="6.44361">
        <ele>1600</ele>
        <time>2020-12-13T12:55:41Z</time>
      </trkpt>
      <trkpt lat="45.98017" lon="6.44355">
        <ele>1623</ele>
        <time>2020-12-13T12:56:11Z</time>
      </trkpt>
      <trkpt lat="45.98002" lon="6.44351">
        <ele>1624</ele>
        <time>2020-12-13T12:56:41Z</time>
      </trkpt>
      <trkpt lat="45.98006" lon="6.44335">
        <ele>1622</ele>
        <time>2020-12-13T12:57:14Z</time>
      </trkpt>
      <trkpt lat="45.98008" lon="6.44335">
        <ele>1637</ele>
        <time>2020-12-13T12:57:44Z</time>
      </trkpt>
      <trkpt lat="45.97995" lon="6.44331">
        <ele>1638</ele>
        <time>2020-12-13T12:58:14Z</time>
      </trkpt>
      <trkpt lat="45.98002" lon="6.44311">
        <ele>1645</ele>
        <time>2020-12-13T12:58:44Z</time>
      </trkpt>
      <trkpt lat="45.97992" lon="6.44304">
        <ele>1654</ele>
        <time>2020-12-13T12:59:14Z</time>
      </trkpt>
      <trkpt lat="45.97988" lon="6.44295">
        <ele>1657</ele>
        <time>2020-12-13T12:59:45Z</time>
      </trkpt>
      <trkpt lat="45.97993" lon="6.44277">
        <ele>1663</ele>
        <time>2020-12-13T13:00:42Z</time>
      </trkpt>
      <trkpt lat="45.97976" lon="6.44264">
        <ele>1654</ele>
        <time>2020-12-13T13:01:12Z</time>
      </trkpt>
      <trkpt lat="45.97984" lon="6.44229">
        <ele>1659</ele>
        <time>2020-12-13T13:01:43Z</time>
      </trkpt>
      <trkpt lat="45.97986" lon="6.44202">
        <ele>1663</ele>
        <time>2020-12-13T13:02:13Z</time>
      </trkpt>
      <trkpt lat="45.97992" lon="6.44193">
        <ele>1611</ele>
        <time>2020-12-13T13:02:43Z</time>
      </trkpt>
      <trkpt lat="45.97987" lon="6.44199">
        <ele>1631</ele>
        <time>2020-12-13T13:03:13Z</time>
      </trkpt>
      <trkpt lat="45.9799" lon="6.44195">
        <ele>1671</ele>
        <time>2020-12-13T13:04:47Z</time>
      </trkpt>
      <trkpt lat="45.97965" lon="6.44165">
        <ele>1657</ele>
        <time>2020-12-13T13:05:41Z</time>
      </trkpt>
      <trkpt lat="45.97951" lon="6.44166">
        <ele>1659</ele>
        <time>2020-12-13T13:06:11Z</time>
      </trkpt>
      <trkpt lat="45.97925" lon="6.44166">
        <ele>1659</ele>
        <time>2020-12-13T13:06:41Z</time>
      </trkpt>
      <trkpt lat="45.97916" lon="6.44152">
        <ele>1666</ele>
        <time>2020-12-13T13:07:12Z</time>
      </trkpt>
      <trkpt lat="45.97912" lon="6.44128">
        <ele>1660</ele>
        <time>2020-12-13T13:07:42Z</time>
      </trkpt>
      <trkpt lat="45.97919" lon="6.44129">
        <ele>1668</ele>
        <time>2020-12-13T13:08:45Z</time>
      </trkpt>
      <trkpt lat="45.97921" lon="6.44125">
        <ele>1640</ele>
        <time>2020-12-13T13:09:15Z</time>
      </trkpt>
      <trkpt lat="45.97917" lon="6.44113">
        <ele>1695</ele>
        <time>2020-12-13T13:10:43Z</time>
      </trkpt>
      <trkpt lat="45.97933" lon="6.44096">
        <ele>1692</ele>
        <time>2020-12-13T13:11:28Z</time>
      </trkpt>
      <trkpt lat="45.97956" lon="6.44104">
        <ele>1669</ele>
        <time>2020-12-13T13:12:12Z</time>
      </trkpt>
      <trkpt lat="45.97967" lon="6.44087">
        <ele>1672</ele>
        <time>2020-12-13T13:13:09Z</time>
      </trkpt>
      <trkpt lat="45.97961" lon="6.44074">
        <ele>1675</ele>
        <time>2020-12-13T13:13:39Z</time>
      </trkpt>
      <trkpt lat="45.9796" lon="6.44064">
        <ele>1681</ele>
        <time>2020-12-13T13:14:09Z</time>
      </trkpt>
      <trkpt lat="45.9796" lon="6.44062">
        <ele>1693</ele>
        <time>2020-12-13T13:15:17Z</time>
      </trkpt>
      <trkpt lat="45.97971" lon="6.44034">
        <ele>1658</ele>
        <time>2020-12-13T13:15:47Z</time>
      </trkpt>
      <trkpt lat="45.97947" lon="6.44011">
        <ele>1698</ele>
        <time>2020-12-13T13:16:38Z</time>
      </trkpt>
      <trkpt lat="45.97941" lon="6.43991">
        <ele>1705</ele>
        <time>2020-12-13T13:17:10Z</time>
      </trkpt>
      <trkpt lat="45.97936" lon="6.43965">
        <ele>1698</ele>
        <time>2020-12-13T13:17:43Z</time>
      </trkpt>
      <trkpt lat="45.97933" lon="6.4396">
        <ele>1700</ele>
        <time>2020-12-13T13:18:13Z</time>
      </trkpt>
      <trkpt lat="45.97921" lon="6.43947">
        <ele>1708</ele>
        <time>2020-12-13T13:18:43Z</time>
      </trkpt>
      <trkpt lat="45.9792" lon="6.43946">
        <ele>1710</ele>
        <time>2020-12-13T13:19:13Z</time>
      </trkpt>
      <trkpt lat="45.97923" lon="6.43944">
        <ele>1712</ele>
        <time>2020-12-13T13:19:43Z</time>
      </trkpt>
      <trkpt lat="45.97921" lon="6.43946">
        <ele>1719</ele>
        <time>2020-12-13T13:20:14Z</time>
      </trkpt>
      <trkpt lat="45.97927" lon="6.43938">
        <ele>1726</ele>
        <time>2020-12-13T13:20:56Z</time>
      </trkpt>
      <trkpt lat="45.97933" lon="6.43936">
        <ele>1717</ele>
        <time>2020-12-13T13:21:37Z</time>
      </trkpt>
      <trkpt lat="45.97938" lon="6.43917">
        <ele>1720</ele>
        <time>2020-12-13T13:22:09Z</time>
      </trkpt>
      <trkpt lat="45.97937" lon="6.43907">
        <ele>1722</ele>
        <time>2020-12-13T13:22:39Z</time>
      </trkpt>
      <trkpt lat="45.97943" lon="6.43885">
        <ele>1721</ele>
        <time>2020-12-13T13:23:11Z</time>
      </trkpt>
      <trkpt lat="45.97962" lon="6.43854">
        <ele>1743</ele>
        <time>2020-12-13T13:24:15Z</time>
      </trkpt>
      <trkpt lat="45.97966" lon="6.43835">
        <ele>1747</ele>
        <time>2020-12-13T13:24:45Z</time>
      </trkpt>
      <trkpt lat="45.97971" lon="6.43824">
        <ele>1741</ele>
        <time>2020-12-13T13:25:15Z</time>
      </trkpt>
      <trkpt lat="45.97969" lon="6.43796">
        <ele>1758</ele>
        <time>2020-12-13T13:25:45Z</time>
      </trkpt>
      <trkpt lat="45.97967" lon="6.43795">
        <ele>1756</ele>
        <time>2020-12-13T13:26:15Z</time>
      </trkpt>
      <trkpt lat="45.97966" lon="6.43795">
        <ele>1757</ele>
        <time>2020-12-13T13:26:45Z</time>
      </trkpt>
      <trkpt lat="45.97959" lon="6.43792">
        <ele>1741</ele>
        <time>2020-12-13T13:27:44Z</time>
      </trkpt>
      <trkpt lat="45.9797" lon="6.43793">
        <ele>1762</ele>
        <time>2020-12-13T13:28:14Z</time>
      </trkpt>
      <trkpt lat="45.97961" lon="6.43792">
        <ele>1742</ele>
        <time>2020-12-13T13:29:44Z</time>
      </trkpt>
      <trkpt lat="45.97968" lon="6.43796">
        <ele>1765</ele>
        <time>2020-12-13T13:30:21Z</time>
      </trkpt>
      <trkpt lat="45.97958" lon="6.43791">
        <ele>1738</ele>
        <time>2020-12-13T13:34:44Z</time>
      </trkpt>
      <trkpt lat="45.9796" lon="6.43788">
        <ele>1733</ele>
        <time>2020-12-13T13:35:14Z</time>
      </trkpt>
      <trkpt lat="45.97967" lon="6.43793">
        <ele>1750</ele>
        <time>2020-12-13T13:35:44Z</time>
      </trkpt>
      <trkpt lat="45.97969" lon="6.43795">
        <ele>1758</ele>
        <time>2020-12-13T13:38:46Z</time>
      </trkpt>
      <trkpt lat="45.97965" lon="6.43799">
        <ele>1755</ele>
        <time>2020-12-13T13:39:17Z</time>
      </trkpt>
      <trkpt lat="45.97965" lon="6.43793">
        <ele>1755</ele>
        <time>2020-12-13T13:44:49Z</time>
      </trkpt>
      <trkpt lat="45.97963" lon="6.43794">
        <ele>1756</ele>
        <time>2020-12-13T13:45:42Z</time>
      </trkpt>
      <trkpt lat="45.97965" lon="6.43797">
        <ele>1758</ele>
        <time>2020-12-13T13:46:13Z</time>
      </trkpt>
      <trkpt lat="45.97964" lon="6.43798">
        <ele>1754</ele>
        <time>2020-12-13T13:59:14Z</time>
      </trkpt>
      <trkpt lat="45.97963" lon="6.43796">
        <ele>1763</ele>
        <time>2020-12-13T13:59:44Z</time>
      </trkpt>
      <trkpt lat="45.97964" lon="6.43795">
        <ele>1758</ele>
        <time>2020-12-13T14:00:44Z</time>
      </trkpt>
      <trkpt lat="45.97947" lon="6.43816">
        <ele>1777</ele>
        <time>2020-12-13T14:06:26Z</time>
      </trkpt>
      <trkpt lat="45.97964" lon="6.43795">
        <ele>1751</ele>
        <time>2020-12-13T14:07:04Z</time>
      </trkpt>
      <trkpt lat="45.97965" lon="6.43796">
        <ele>1750</ele>
        <time>2020-12-13T14:11:12Z</time>
      </trkpt>
      <trkpt lat="45.97967" lon="6.43794">
        <ele>1749</ele>
        <time>2020-12-13T14:11:42Z</time>
      </trkpt>
      <trkpt lat="45.97963" lon="6.43794">
        <ele>1756</ele>
        <time>2020-12-13T14:12:12Z</time>
      </trkpt>
      <trkpt lat="45.97964" lon="6.43797">
        <ele>1758</ele>
        <time>2020-12-13T14:16:14Z</time>
      </trkpt>
      <trkpt lat="45.97966" lon="6.43794">
        <ele>1754</ele>
        <time>2020-12-13T14:16:44Z</time>
      </trkpt>
      <trkpt lat="45.97967" lon="6.43794">
        <ele>1754</ele>
        <time>2020-12-13T14:19:42Z</time>
      </trkpt>
      <trkpt lat="45.97967" lon="6.43795">
        <ele>1756</ele>
        <time>2020-12-13T14:20:12Z</time>
      </trkpt>
      <trkpt lat="45.97963" lon="6.43795">
        <ele>1761</ele>
        <time>2020-12-13T14:23:43Z</time>
      </trkpt>
      <trkpt lat="45.97965" lon="6.43795">
        <ele>1752</ele>
        <time>2020-12-13T14:25:16Z</time>
      </trkpt>
      <trkpt lat="45.97966" lon="6.43794">
        <ele>1754</ele>
        <time>2020-12-13T14:27:44Z</time>
      </trkpt>
      <trkpt lat="45.97964" lon="6.43794">
        <ele>1756</ele>
        <time>2020-12-13T14:30:14Z</time>
      </trkpt>
      <trkpt lat="45.97967" lon="6.43792">
        <ele>1750</ele>
        <time>2020-12-13T14:30:44Z</time>
      </trkpt>
      <trkpt lat="45.97962" lon="6.43795">
        <ele>1759</ele>
        <time>2020-12-13T14:31:14Z</time>
      </trkpt>
      <trkpt lat="45.97966" lon="6.43793">
        <ele>1752</ele>
        <time>2020-12-13T14:33:43Z</time>
      </trkpt>
      <trkpt lat="45.97968" lon="6.43792">
        <ele>1755</ele>
        <time>2020-12-13T14:34:13Z</time>
      </trkpt>
      <trkpt lat="45.97969" lon="6.43794">
        <ele>1756</ele>
        <time>2020-12-13T14:35:13Z</time>
      </trkpt>
      <trkpt lat="45.97973" lon="6.43804">
        <ele>1755</ele>
        <time>2020-12-13T14:35:43Z</time>
      </trkpt>
      <trkpt lat="45.97976" lon="6.4382">
        <ele>1753</ele>
        <time>2020-12-13T14:36:13Z</time>
      </trkpt>
      <trkpt lat="45.97968" lon="6.43839">
        <ele>1744</ele>
        <time>2020-12-13T14:36:43Z</time>
      </trkpt>
      <trkpt lat="45.97967" lon="6.4385">
        <ele>1742</ele>
        <time>2020-12-13T14:37:13Z</time>
      </trkpt>
      <trkpt lat="45.97964" lon="6.43851">
        <ele>1736</ele>
        <time>2020-12-13T14:37:43Z</time>
      </trkpt>
      <trkpt lat="45.97962" lon="6.4385">
        <ele>1736</ele>
        <time>2020-12-13T14:39:41Z</time>
      </trkpt>
      <trkpt lat="45.97961" lon="6.43848">
        <ele>1734</ele>
        <time>2020-12-13T14:40:14Z</time>
      </trkpt>
      <trkpt lat="45.97968" lon="6.43863">
        <ele>1736</ele>
        <time>2020-12-13T14:40:44Z</time>
      </trkpt>
      <trkpt lat="45.97964" lon="6.43876">
        <ele>1731</ele>
        <time>2020-12-13T14:41:14Z</time>
      </trkpt>
      <trkpt lat="45.97963" lon="6.43889">
        <ele>1726</ele>
        <time>2020-12-13T14:41:44Z</time>
      </trkpt>
      <trkpt lat="45.97958" lon="6.43896">
        <ele>1722</ele>
        <time>2020-12-13T14:42:14Z</time>
      </trkpt>
      <trkpt lat="45.97958" lon="6.43919">
        <ele>1717</ele>
        <time>2020-12-13T14:42:44Z</time>
      </trkpt>
      <trkpt lat="45.97961" lon="6.43944">
        <ele>1713</ele>
        <time>2020-12-13T14:43:14Z</time>
      </trkpt>
      <trkpt lat="45.97965" lon="6.43962">
        <ele>1706</ele>
        <time>2020-12-13T14:43:44Z</time>
      </trkpt>
      <trkpt lat="45.97958" lon="6.43989">
        <ele>1702</ele>
        <time>2020-12-13T14:44:14Z</time>
      </trkpt>
      <trkpt lat="45.97946" lon="6.44">
        <ele>1693</ele>
        <time>2020-12-13T14:44:44Z</time>
      </trkpt>
      <trkpt lat="45.97955" lon="6.44016">
        <ele>1689</ele>
        <time>2020-12-13T14:45:14Z</time>
      </trkpt>
      <trkpt lat="45.97963" lon="6.44041">
        <ele>1684</ele>
        <time>2020-12-13T14:45:44Z</time>
      </trkpt>
      <trkpt lat="45.97963" lon="6.44079">
        <ele>1679</ele>
        <time>2020-12-13T14:46:14Z</time>
      </trkpt>
      <trkpt lat="45.97959" lon="6.44078">
        <ele>1678</ele>
        <time>2020-12-13T14:46:44Z</time>
      </trkpt>
      <trkpt lat="45.97963" lon="6.4408">
        <ele>1681</ele>
        <time>2020-12-13T14:47:14Z</time>
      </trkpt>
      <trkpt lat="45.97968" lon="6.44097">
        <ele>1673</ele>
        <time>2020-12-13T14:47:44Z</time>
      </trkpt>
      <trkpt lat="45.97961" lon="6.44104">
        <ele>1672</ele>
        <time>2020-12-13T14:48:14Z</time>
      </trkpt>
      <trkpt lat="45.9795" lon="6.44099">
        <ele>1670</ele>
        <time>2020-12-13T14:49:08Z</time>
      </trkpt>
      <trkpt lat="45.97931" lon="6.44102">
        <ele>1665</ele>
        <time>2020-12-13T14:49:39Z</time>
      </trkpt>
      <trkpt lat="45.97918" lon="6.44112">
        <ele>1663</ele>
        <time>2020-12-13T14:50:11Z</time>
      </trkpt>
      <trkpt lat="45.97921" lon="6.44126">
        <ele>1660</ele>
        <time>2020-12-13T14:50:41Z</time>
      </trkpt>
      <trkpt lat="45.97916" lon="6.44148">
        <ele>1652</ele>
        <time>2020-12-13T14:51:11Z</time>
      </trkpt>
      <trkpt lat="45.97939" lon="6.44163">
        <ele>1652</ele>
        <time>2020-12-13T14:51:41Z</time>
      </trkpt>
      <trkpt lat="45.97973" lon="6.44167">
        <ele>1645</ele>
        <time>2020-12-13T14:52:13Z</time>
      </trkpt>
      <trkpt lat="45.97991" lon="6.44189">
        <ele>1642</ele>
        <time>2020-12-13T14:52:43Z</time>
      </trkpt>
      <trkpt lat="45.97987" lon="6.44218">
        <ele>1643</ele>
        <time>2020-12-13T14:53:13Z</time>
      </trkpt>
      <trkpt lat="45.97971" lon="6.44254">
        <ele>1639</ele>
        <time>2020-12-13T14:53:43Z</time>
      </trkpt>
      <trkpt lat="45.97994" lon="6.44282">
        <ele>1645</ele>
        <time>2020-12-13T14:54:16Z</time>
      </trkpt>
      <trkpt lat="45.97993" lon="6.44334">
        <ele>1625</ele>
        <time>2020-12-13T14:55:10Z</time>
      </trkpt>
      <trkpt lat="45.98" lon="6.44352">
        <ele>1620</ele>
        <time>2020-12-13T14:55:40Z</time>
      </trkpt>
      <trkpt lat="45.98016" lon="6.44363">
        <ele>1611</ele>
        <time>2020-12-13T14:56:13Z</time>
      </trkpt>
      <trkpt lat="45.98025" lon="6.4438">
        <ele>1608</ele>
        <time>2020-12-13T14:56:43Z</time>
      </trkpt>
      <trkpt lat="45.98029" lon="6.44402">
        <ele>1594</ele>
        <time>2020-12-13T14:57:13Z</time>
      </trkpt>
      <trkpt lat="45.98036" lon="6.44424">
        <ele>1586</ele>
        <time>2020-12-13T14:57:43Z</time>
      </trkpt>
      <trkpt lat="45.98034" lon="6.44453">
        <ele>1576</ele>
        <time>2020-12-13T14:58:13Z</time>
      </trkpt>
      <trkpt lat="45.98031" lon="6.44472">
        <ele>1571</ele>
        <time>2020-12-13T14:58:43Z</time>
      </trkpt>
      <trkpt lat="45.9802" lon="6.44494">
        <ele>1564</ele>
        <time>2020-12-13T14:59:13Z</time>
      </trkpt>
      <trkpt lat="45.97993" lon="6.44494">
        <ele>1559</ele>
        <time>2020-12-13T14:59:43Z</time>
      </trkpt>
      <trkpt lat="45.97961" lon="6.44482">
        <ele>1556</ele>
        <time>2020-12-13T15:00:13Z</time>
      </trkpt>
      <trkpt lat="45.97938" lon="6.44467">
        <ele>1552</ele>
        <time>2020-12-13T15:00:43Z</time>
      </trkpt>
      <trkpt lat="45.97918" lon="6.44463">
        <ele>1538</ele>
        <time>2020-12-13T15:01:13Z</time>
      </trkpt>
      <trkpt lat="45.97915" lon="6.44464">
        <ele>1551</ele>
        <time>2020-12-13T15:01:45Z</time>
      </trkpt>
      <trkpt lat="45.9789" lon="6.44442">
        <ele>1544</ele>
        <time>2020-12-13T15:02:15Z</time>
      </trkpt>
      <trkpt lat="45.9785" lon="6.44426">
        <ele>1533</ele>
        <time>2020-12-13T15:02:45Z</time>
      </trkpt>
      <trkpt lat="45.97817" lon="6.4443">
        <ele>1533</ele>
        <time>2020-12-13T15:03:15Z</time>
      </trkpt>
      <trkpt lat="45.97791" lon="6.44428">
        <ele>1529</ele>
        <time>2020-12-13T15:03:45Z</time>
      </trkpt>
      <trkpt lat="45.97765" lon="6.44449">
        <ele>1528</ele>
        <time>2020-12-13T15:04:15Z</time>
      </trkpt>
      <trkpt lat="45.97743" lon="6.44472">
        <ele>1532</ele>
        <time>2020-12-13T15:04:45Z</time>
      </trkpt>
      <trkpt lat="45.97699" lon="6.44517">
        <ele>1524</ele>
        <time>2020-12-13T15:05:41Z</time>
      </trkpt>
      <trkpt lat="45.97686" lon="6.44562">
        <ele>1520</ele>
        <time>2020-12-13T15:06:11Z</time>
      </trkpt>
      <trkpt lat="45.97682" lon="6.44576">
        <ele>1523</ele>
        <time>2020-12-13T15:06:44Z</time>
      </trkpt>
      <trkpt lat="45.97674" lon="6.44626">
        <ele>1515</ele>
        <time>2020-12-13T15:07:14Z</time>
      </trkpt>
      <trkpt lat="45.97669" lon="6.44642">
        <ele>1511</ele>
        <time>2020-12-13T15:07:44Z</time>
      </trkpt>
      <trkpt lat="45.9766" lon="6.44691">
        <ele>1504</ele>
        <time>2020-12-13T15:08:14Z</time>
      </trkpt>
      <trkpt lat="45.97655" lon="6.44743">
        <ele>1498</ele>
        <time>2020-12-13T15:08:46Z</time>
      </trkpt>
      <trkpt lat="45.97651" lon="6.44788">
        <ele>1486</ele>
        <time>2020-12-13T15:09:40Z</time>
      </trkpt>
      <trkpt lat="45.97646" lon="6.44833">
        <ele>1485</ele>
        <time>2020-12-13T15:10:13Z</time>
      </trkpt>
      <trkpt lat="45.97668" lon="6.44853">
        <ele>1482</ele>
        <time>2020-12-13T15:10:43Z</time>
      </trkpt>
      <trkpt lat="45.97696" lon="6.44854">
        <ele>1480</ele>
        <time>2020-12-13T15:11:15Z</time>
      </trkpt>
      <trkpt lat="45.97733" lon="6.44872">
        <ele>1477</ele>
        <time>2020-12-13T15:12:13Z</time>
      </trkpt>
      <trkpt lat="45.97731" lon="6.44902">
        <ele>1459</ele>
        <time>2020-12-13T15:12:44Z</time>
      </trkpt>
      <trkpt lat="45.97742" lon="6.44954">
        <ele>1481</ele>
        <time>2020-12-13T15:13:14Z</time>
      </trkpt>
      <trkpt lat="45.97723" lon="6.44982">
        <ele>1470</ele>
        <time>2020-12-13T15:13:44Z</time>
      </trkpt>
      <trkpt lat="45.97706" lon="6.45008">
        <ele>1464</ele>
        <time>2020-12-13T15:14:14Z</time>
      </trkpt>
      <trkpt lat="45.97682" lon="6.45036">
        <ele>1464</ele>
        <time>2020-12-13T15:14:44Z</time>
      </trkpt>
      <trkpt lat="45.9767" lon="6.45038">
        <ele>1458</ele>
        <time>2020-12-13T15:15:14Z</time>
      </trkpt>
      <trkpt lat="45.97665" lon="6.45025">
        <ele>1432</ele>
        <time>2020-12-13T15:15:44Z</time>
      </trkpt>
      <trkpt lat="45.97659" lon="6.45041">
        <ele>1451</ele>
        <time>2020-12-13T15:16:14Z</time>
      </trkpt>
      <trkpt lat="45.97627" lon="6.45061">
        <ele>1453</ele>
        <time>2020-12-13T15:16:44Z</time>
      </trkpt>
      <trkpt lat="45.97603" lon="6.45074">
        <ele>1423</ele>
        <time>2020-12-13T15:17:14Z</time>
      </trkpt>
      <trkpt lat="45.97609" lon="6.45131">
        <ele>1425</ele>
        <time>2020-12-13T15:17:44Z</time>
      </trkpt>
      <trkpt lat="45.97604" lon="6.4516">
        <ele>1414</ele>
        <time>2020-12-13T15:18:14Z</time>
      </trkpt>
      <trkpt lat="45.97581" lon="6.45161">
        <ele>1415</ele>
        <time>2020-12-13T15:18:44Z</time>
      </trkpt>
      <trkpt lat="45.97574" lon="6.45174">
        <ele>1417</ele>
        <time>2020-12-13T15:19:40Z</time>
      </trkpt>
      <trkpt lat="45.97561" lon="6.45212">
        <ele>1409</ele>
        <time>2020-12-13T15:20:35Z</time>
      </trkpt>
      <trkpt lat="45.9756" lon="6.45216">
        <ele>1417</ele>
        <time>2020-12-13T15:21:05Z</time>
      </trkpt>
      <trkpt lat="45.97578" lon="6.45257">
        <ele>1413</ele>
        <time>2020-12-13T15:21:35Z</time>
      </trkpt>
      <trkpt lat="45.97592" lon="6.45302">
        <ele>1398</ele>
        <time>2020-12-13T15:22:05Z</time>
      </trkpt>
      <trkpt lat="45.97589" lon="6.45353">
        <ele>1394</ele>
        <time>2020-12-13T15:22:35Z</time>
      </trkpt>
      <trkpt lat="45.97593" lon="6.45407">
        <ele>1385</ele>
        <time>2020-12-13T15:23:05Z</time>
      </trkpt>
      <trkpt lat="45.97599" lon="6.45449">
        <ele>1376</ele>
        <time>2020-12-13T15:23:37Z</time>
      </trkpt>
      <trkpt lat="45.97613" lon="6.45506">
        <ele>1372</ele>
        <time>2020-12-13T15:24:09Z</time>
      </trkpt>
      <trkpt lat="45.97618" lon="6.45557">
        <ele>1367</ele>
        <time>2020-12-13T15:24:39Z</time>
      </trkpt>
      <trkpt lat="45.97616" lon="6.45571">
        <ele>1370</ele>
        <time>2020-12-13T15:25:10Z</time>
      </trkpt>
      <trkpt lat="45.97617" lon="6.45588">
        <ele>1373</ele>
        <time>2020-12-13T15:25:42Z</time>
      </trkpt>
    </trkseg>
  </trk>
</gpx>